createdAt,value
2019-02-17T00:01:49.032Z,90.40
2019-02-17T00:04:17.770Z,90.30
2019-02-17T00:06:46.471Z,90.10
2019-02-17T00:09:15.275Z,90.10
2019-02-17T00:11:43.916Z,89.70
2019-02-17T00:14:12.609Z,89.50
2019-02-17T00:16:41.224Z,89.40
2019-02-17T00:19:10.010Z,90.00
2019-02-17T00:21:38.661Z,90.10
2019-02-17T00:24:07.303Z,90.30
2019-02-17T00:26:35.941Z,90.10
2019-02-17T00:29:04.719Z,90.30
2019-02-17T00:31:33.374Z,90.40
2019-02-17T00:34:01.999Z,90.30
2019-02-17T00:36:30.744Z,90.30
2019-02-17T00:38:59.385Z,90.40
2019-02-17T00:41:28.291Z,90.40
2019-02-17T00:43:56.931Z,90.50
2019-02-17T00:46:25.637Z,90.50
2019-02-17T00:48:54.221Z,90.90
2019-02-17T00:51:22.830Z,90.90
2019-02-17T00:53:51.447Z,91.30
2019-02-17T00:56:20.044Z,91.50
2019-02-17T00:58:48.808Z,91.40
2019-02-17T01:01:17.509Z,91.30
2019-02-17T01:03:46.189Z,91.50
2019-02-17T01:06:14.841Z,91.50
2019-02-17T01:08:43.460Z,91.50
2019-02-17T01:11:12.087Z,91.70
2019-02-17T01:13:40.872Z,91.90
2019-02-17T01:16:09.529Z,91.80
2019-02-17T01:18:38.141Z,91.70
2019-02-17T01:21:06.858Z,91.50
2019-02-17T01:23:35.459Z,91.40
2019-02-17T01:26:04.084Z,91.20
2019-02-17T01:28:32.695Z,91.10
2019-02-17T01:31:01.299Z,90.70
2019-02-17T01:33:29.929Z,90.70
2019-02-17T01:35:58.533Z,90.50
2019-02-17T01:38:27.195Z,90.70
2019-02-17T01:40:55.799Z,90.60
2019-02-17T01:43:24.412Z,90.60
2019-02-17T01:45:53.115Z,90.70
2019-02-17T01:48:21.699Z,90.20
2019-02-17T01:50:50.284Z,90.50
2019-02-17T01:53:18.894Z,90.50
2019-02-17T01:55:47.724Z,90.70
2019-02-17T01:58:16.332Z,90.80
2019-02-17T02:00:44.928Z,90.80
2019-02-17T02:03:13.543Z,90.90
2019-02-17T02:05:42.167Z,91.20
2019-02-17T02:08:10.882Z,91.20
2019-02-17T02:10:39.479Z,91.20
2019-02-17T02:13:08.088Z,91.20
2019-02-17T02:15:36.712Z,91.40
2019-02-17T02:18:05.504Z,91.40
2019-02-17T02:20:34.135Z,91.40
2019-02-17T02:23:02.840Z,91.50
2019-02-17T02:25:31.613Z,91.40
2019-02-17T02:28:00.212Z,91.40
2019-02-17T02:30:29.017Z,91.40
2019-02-17T02:32:57.604Z,91.30
2019-02-17T02:35:26.235Z,91.10
2019-02-17T02:37:54.893Z,91.20
2019-02-17T02:40:23.560Z,91.10
2019-02-17T02:42:52.137Z,91.20
2019-02-17T02:45:20.719Z,90.90
2019-02-17T02:47:49.479Z,90.80
2019-02-17T02:50:18.072Z,90.80
2019-02-17T02:52:46.906Z,90.70
2019-02-17T02:55:15.489Z,90.50
2019-02-17T02:57:44.065Z,90.40
2019-02-17T03:00:12.827Z,90.40
2019-02-17T03:02:41.457Z,90.40
2019-02-17T03:05:10.432Z,90.30
2019-02-17T03:07:39.062Z,90.20
2019-02-17T03:10:08.069Z,90.10
2019-02-17T03:12:36.704Z,90.10
2019-02-17T03:15:06.051Z,90.00
2019-02-17T03:17:34.672Z,89.90
2019-02-17T03:20:03.372Z,89.60
2019-02-17T03:22:32.021Z,89.50
2019-02-17T03:25:00.944Z,89.60
2019-02-17T03:27:35.331Z,89.40
2019-02-17T03:30:05.506Z,89.40
2019-02-17T03:32:34.331Z,89.30
2019-02-17T03:35:04.123Z,89.30
2019-02-17T03:37:52.019Z,89.30
2019-02-17T03:40:20.648Z,90.00
2019-02-17T03:42:49.472Z,89.00
2019-02-17T03:45:18.429Z,88.90
2019-02-17T03:47:47.253Z,89.10
2019-02-17T03:50:15.845Z,89.20
2019-02-17T03:52:44.532Z,89.20
2019-02-17T03:55:13.167Z,89.30
2019-02-17T03:57:41.857Z,89.40
2019-02-17T04:00:16.933Z,89.50
2019-02-17T04:02:40.807Z,89.30
2019-02-17T04:05:09.383Z,89.20
2019-02-17T04:07:37.985Z,89.10
2019-02-17T04:10:06.741Z,89.10
2019-02-17T04:12:35.327Z,89.30
2019-02-17T04:15:04.007Z,89.20
2019-02-17T04:17:32.697Z,89.70
2019-02-17T04:20:01.280Z,89.60
2019-02-17T04:22:29.909Z,89.50
2019-02-17T04:24:58.539Z,89.80
2019-02-17T04:27:27.147Z,89.70
2019-02-17T04:30:15.040Z,89.20
2019-02-17T04:32:43.620Z,89.60
2019-02-17T04:35:12.221Z,90.00
2019-02-17T04:37:40.803Z,90.00
2019-02-17T04:40:09.420Z,90.00
2019-02-17T04:42:38.032Z,90.00
2019-02-17T04:45:06.807Z,89.90
2019-02-17T04:47:35.401Z,89.90
2019-02-17T04:50:05.332Z,90.00
2019-02-17T04:52:53.236Z,89.80
2019-02-17T04:55:21.839Z,89.90
2019-02-17T04:57:50.516Z,89.80
2019-02-17T05:00:19.213Z,89.70
2019-02-17T05:02:47.924Z,89.50
2019-02-17T05:05:16.487Z,89.30
2019-02-17T05:07:45.090Z,89.30
2019-02-17T05:10:13.658Z,89.00
2019-02-17T05:12:42.223Z,89.40
2019-02-17T05:15:10.896Z,89.40
2019-02-17T05:17:39.506Z,89.50
2019-02-17T05:20:08.490Z,89.20
2019-02-17T05:22:56.750Z,89.20
2019-02-17T05:25:25.661Z,89.30
2019-02-17T05:27:54.562Z,89.30
2019-02-17T05:30:23.144Z,89.20
2019-02-17T05:32:51.761Z,89.20
2019-02-17T05:35:20.352Z,89.20
2019-02-17T05:37:49.419Z,89.40
2019-02-17T05:40:18.126Z,89.40
2019-02-17T05:42:46.871Z,89.40
2019-02-17T05:45:15.621Z,89.20
2019-02-17T05:47:44.197Z,89.10
2019-02-17T05:50:12.820Z,89.10
2019-02-17T05:52:41.465Z,89.00
2019-02-17T05:55:10.060Z,88.90
2019-02-17T05:57:38.636Z,88.90
2019-02-17T06:00:08.006Z,88.90
2019-02-17T06:02:36.639Z,89.00
2019-02-17T06:05:05.340Z,88.90
2019-02-17T06:07:33.963Z,88.90
2019-02-17T06:10:02.733Z,88.80
2019-02-17T06:12:31.336Z,89.00
2019-02-17T06:14:59.953Z,88.80
2019-02-17T06:17:28.582Z,89.10
2019-02-17T06:19:57.183Z,89.20
2019-02-17T06:22:25.776Z,89.10
2019-02-17T06:24:54.379Z,88.90
2019-02-17T06:27:22.977Z,89.00
2019-02-17T06:29:51.585Z,88.90
2019-02-17T06:32:20.244Z,89.20
2019-02-17T06:34:49.135Z,89.20
2019-02-17T06:37:17.760Z,89.20
2019-02-17T06:39:46.389Z,89.10
2019-02-17T06:42:15.189Z,89.20
2019-02-17T06:44:43.833Z,89.10
2019-02-17T06:47:17.418Z,89.10
2019-02-17T06:49:46.014Z,89.20
2019-02-17T06:52:14.722Z,89.00
2019-02-17T06:54:45.004Z,89.40
2019-02-17T06:57:17.546Z,89.30
2019-02-17T06:59:46.201Z,89.50
2019-02-17T07:02:14.956Z,89.50
2019-02-17T07:05:21.026Z,89.20
2019-02-17T07:07:49.635Z,89.30
2019-02-17T07:10:18.296Z,89.40
2019-02-17T07:12:47.352Z,89.50
2019-02-17T07:15:15.964Z,89.30
2019-02-17T07:17:44.569Z,89.50
2019-02-17T07:20:13.485Z,89.40
2019-02-17T07:22:42.144Z,89.40
2019-02-17T07:25:10.737Z,89.20
2019-02-17T07:27:39.411Z,89.20
2019-02-17T07:30:08.119Z,89.00
2019-02-17T07:32:37.003Z,89.20
2019-02-17T07:35:05.695Z,89.00
2019-02-17T07:37:34.283Z,89.00
2019-02-17T07:40:02.936Z,88.80
2019-02-17T07:42:31.549Z,88.70
2019-02-17T07:45:00.169Z,88.60
2019-02-17T07:47:28.849Z,88.60
2019-02-17T07:49:57.431Z,88.40
2019-02-17T07:52:26.035Z,88.10
2019-02-17T07:54:54.631Z,87.90
2019-02-17T07:57:23.293Z,87.90
2019-02-17T07:59:52.189Z,87.90
2019-02-17T08:02:20.819Z,87.90
2019-02-17T08:04:49.403Z,87.70
2019-02-17T08:07:18.059Z,87.50
2019-02-17T08:09:47.047Z,87.10
2019-02-17T08:12:15.616Z,87.10
2019-02-17T08:14:44.217Z,86.90
2019-02-17T08:17:12.795Z,86.20
2019-02-17T08:19:41.432Z,85.20
2019-02-17T08:22:10.020Z,85.30
2019-02-17T08:24:38.636Z,84.40
2019-02-17T08:27:07.221Z,84.20
2019-02-17T08:29:35.808Z,83.40
2019-02-17T08:32:04.432Z,83.30
2019-02-17T08:34:33.081Z,82.60
2019-02-17T08:37:01.877Z,82.70
2019-02-17T08:39:30.498Z,82.40
2019-02-17T08:41:59.433Z,82.20
2019-02-17T08:44:28.043Z,81.80
2019-02-17T08:46:56.650Z,82.00
2019-02-17T08:49:25.284Z,81.10
2019-02-17T08:51:53.935Z,81.60
2019-02-17T08:54:22.523Z,81.70
2019-02-17T08:56:51.100Z,81.60
2019-02-17T08:59:19.985Z,80.30
2019-02-17T09:01:48.674Z,81.20
2019-02-17T09:04:17.270Z,80.70
2019-02-17T09:06:45.854Z,79.70
2019-02-17T09:09:14.431Z,79.10
2019-02-17T09:11:43.091Z,78.20
2019-02-17T09:14:11.693Z,77.00
2019-02-17T09:16:40.321Z,76.50
2019-02-17T09:19:28.564Z,75.50
2019-02-17T09:21:57.164Z,75.80
2019-02-17T09:24:25.814Z,75.90
2019-02-17T09:26:54.699Z,75.50
2019-02-17T09:29:23.372Z,74.10
2019-02-17T09:31:51.948Z,74.50
2019-02-17T09:34:20.586Z,73.90
2019-02-17T09:36:49.655Z,75.40
2019-02-17T09:39:18.321Z,74.20
2019-02-17T09:41:47.276Z,74.10
2019-02-17T09:44:15.899Z,74.10
2019-02-17T09:46:44.499Z,74.10
2019-02-17T09:49:13.160Z,74.20
2019-02-17T09:51:41.745Z,74.60
2019-02-17T09:54:10.328Z,73.60
2019-02-17T09:56:38.138Z,73.80
2019-02-17T09:59:07.091Z,73.20
2019-02-17T10:01:35.691Z,73.30
2019-02-17T10:04:04.352Z,73.10
2019-02-17T10:06:33.017Z,73.20
2019-02-17T10:09:01.793Z,73.10
2019-02-17T10:11:30.427Z,72.50
2019-02-17T10:13:59.045Z,73.10
2019-02-17T10:16:27.716Z,71.70
2019-02-17T10:18:56.629Z,72.40
2019-02-17T10:21:25.234Z,71.30
2019-02-17T10:23:53.816Z,71.70
2019-02-17T10:26:22.488Z,71.60
2019-02-17T10:28:51.062Z,70.10
2019-02-17T10:31:19.692Z,70.40
2019-02-17T10:33:48.492Z,70.20
2019-02-17T10:36:22.980Z,71.00
2019-02-17T10:38:51.559Z,68.70
2019-02-17T10:41:20.164Z,69.90
2019-02-17T10:43:48.823Z,70.20
2019-02-17T10:46:17.435Z,67.80
2019-02-17T10:48:46.044Z,68.20
2019-02-17T10:51:14.751Z,68.30
2019-02-17T10:53:43.369Z,67.00
2019-02-17T10:56:11.967Z,66.90
2019-02-17T10:58:40.575Z,66.70
2019-02-17T11:01:09.174Z,67.00
2019-02-17T11:03:38.073Z,65.20
2019-02-17T11:06:10.039Z,63.60
2019-02-17T11:08:38.651Z,63.30
2019-02-17T11:11:08.739Z,62.60
2019-02-17T11:13:37.366Z,64.10
2019-02-17T11:16:05.993Z,63.90
2019-02-17T11:18:34.711Z,63.00
2019-02-17T11:21:03.684Z,61.90
2019-02-17T11:23:32.466Z,62.10
2019-02-17T11:26:05.868Z,61.80
2019-02-17T11:29:04.043Z,62.20
2019-02-17T11:31:32.753Z,62.10
2019-02-17T11:34:01.484Z,61.30
2019-02-17T11:36:30.119Z,61.50
2019-02-17T11:38:58.835Z,61.40
2019-02-17T11:41:27.524Z,61.40
2019-02-17T11:43:56.221Z,60.80
2019-02-17T11:46:24.911Z,59.50
2019-02-17T11:48:53.557Z,60.40
2019-02-17T11:51:22.204Z,60.10
2019-02-17T11:53:50.931Z,61.00
2019-02-17T11:56:18.743Z,60.30
2019-02-17T11:58:46.536Z,59.40
2019-02-17T12:01:14.328Z,60.60
2019-02-17T12:03:42.265Z,60.90
2019-02-17T12:06:10.537Z,60.00
2019-02-17T12:08:38.766Z,59.20
2019-02-17T12:11:06.602Z,60.00
2019-02-17T12:13:34.420Z,59.60
2019-02-17T12:16:02.313Z,58.20
2019-02-17T12:18:30.112Z,59.00
2019-02-17T12:21:12.669Z,57.90
2019-02-17T12:24:08.756Z,58.40
2019-02-17T12:26:54.716Z,57.70
2019-02-17T12:29:27.265Z,57.60
2019-02-17T12:31:57.798Z,58.10
2019-02-17T12:34:26.348Z,57.60
2019-02-17T12:36:54.942Z,58.00
2019-02-17T12:39:23.560Z,57.90
2019-02-17T12:41:52.227Z,58.20
2019-02-17T12:44:20.852Z,56.10
2019-02-17T12:46:49.653Z,57.50
2019-02-17T12:49:18.392Z,57.50
2019-02-17T12:51:47.166Z,57.00
2019-02-17T12:54:15.869Z,58.00
2019-02-17T12:56:45.308Z,57.80
2019-02-17T12:59:13.941Z,57.70
2019-02-17T13:01:42.607Z,57.90
2019-02-17T13:04:11.591Z,57.60
2019-02-17T13:06:40.358Z,57.60
2019-02-17T13:09:09.888Z,57.60
2019-02-17T13:11:38.618Z,56.90
2019-02-17T13:14:07.230Z,57.30
2019-02-17T13:16:35.893Z,56.30
2019-02-17T13:19:04.732Z,56.60
2019-02-17T13:21:33.496Z,57.30
2019-02-17T13:24:02.640Z,56.00
2019-02-17T13:26:31.571Z,56.60
2019-02-17T13:29:00.196Z,56.70
2019-02-17T13:31:28.891Z,56.00
2019-02-17T13:33:57.530Z,56.40
2019-02-17T13:36:26.142Z,56.10
2019-02-17T13:38:54.746Z,56.10
2019-02-17T13:41:23.652Z,56.50
2019-02-17T13:43:52.336Z,56.30
2019-02-17T13:46:21.481Z,56.40
2019-02-17T13:48:50.185Z,57.30
2019-02-17T13:51:18.841Z,57.00
2019-02-17T13:53:47.752Z,57.50
2019-02-17T13:56:16.512Z,57.60
2019-02-17T13:58:45.161Z,57.50
2019-02-17T14:01:13.850Z,57.50
2019-02-17T14:03:48.766Z,57.10
2019-02-17T14:06:13.014Z,56.80
2019-02-17T14:08:41.731Z,57.60
2019-02-17T14:11:10.425Z,56.50
2019-02-17T14:13:39.056Z,54.90
2019-02-17T14:16:07.819Z,54.90
2019-02-17T14:18:36.436Z,55.50
2019-02-17T14:21:05.090Z,55.00
2019-02-17T14:23:33.728Z,53.30
2019-02-17T14:26:02.503Z,53.60
2019-02-17T14:28:31.130Z,52.70
2019-02-17T14:30:59.886Z,52.10
2019-02-17T14:33:28.510Z,52.50
2019-02-17T14:35:57.148Z,52.30
2019-02-17T14:38:25.825Z,51.50
2019-02-17T14:40:54.459Z,50.90
2019-02-17T14:43:23.204Z,51.10
2019-02-17T14:45:51.931Z,51.10
2019-02-17T14:48:20.559Z,51.20
2019-02-17T14:50:49.344Z,50.60
2019-02-17T14:53:17.951Z,50.30
2019-02-17T14:55:46.997Z,51.30
2019-02-17T14:58:15.928Z,51.60
2019-02-17T15:00:44.612Z,51.30
2019-02-17T15:03:13.616Z,50.80
2019-02-17T15:05:42.247Z,50.30
2019-02-17T15:08:10.912Z,50.30
2019-02-17T15:10:39.487Z,51.00
2019-02-17T15:13:08.255Z,51.20
2019-02-17T15:15:36.989Z,51.60
2019-02-17T15:18:05.659Z,52.00
2019-02-17T15:20:34.288Z,51.60
2019-02-17T15:23:02.983Z,52.20
2019-02-17T15:25:31.830Z,51.60
2019-02-17T15:28:00.433Z,51.10
2019-02-17T15:30:29.389Z,51.10
2019-02-17T15:40:18.232Z,51.90
2019-02-17T15:42:38.018Z,51.50
2019-02-17T15:45:07.983Z,51.70
2019-02-17T15:47:36.662Z,51.30
2019-02-17T15:50:05.981Z,50.10
2019-02-17T15:52:34.669Z,50.40
2019-02-17T15:55:03.424Z,51.00
2019-02-17T15:57:32.153Z,50.30
2019-02-17T16:00:00.879Z,50.70
2019-02-17T16:02:34.200Z,51.70
2019-02-17T16:05:22.504Z,51.30
2019-02-17T16:07:58.044Z,51.50
2019-02-17T16:10:52.645Z,52.40
2019-02-17T16:13:21.605Z,52.60
2019-02-17T16:15:50.253Z,52.10
2019-02-17T16:18:18.853Z,52.30
2019-02-17T16:20:48.120Z,52.30
2019-02-17T16:23:19.502Z,52.60
2019-02-17T16:25:53.385Z,53.10
2019-02-17T16:28:23.426Z,53.50
2019-02-17T16:30:52.831Z,53.30
2019-02-17T16:33:23.138Z,53.40
2019-02-17T16:35:51.816Z,53.80
2019-02-17T16:38:20.600Z,54.70
2019-02-17T16:40:52.422Z,55.20
2019-02-17T16:43:21.054Z,55.20
2019-02-17T16:45:49.639Z,56.30
2019-02-17T16:48:18.288Z,56.80
2019-02-17T16:50:47.446Z,57.20
2019-02-17T16:53:16.023Z,57.30
2019-02-17T16:55:44.716Z,57.50
2019-02-17T16:58:13.671Z,57.90
2019-02-17T17:00:42.532Z,58.10
2019-02-17T17:03:11.378Z,58.30
2019-02-17T17:05:40.081Z,58.90
2019-02-17T17:08:08.728Z,58.80
2019-02-17T17:10:37.357Z,59.30
2019-02-17T17:13:06.013Z,59.70
2019-02-17T17:15:34.712Z,59.80
2019-02-17T17:18:03.385Z,60.20
2019-02-17T17:20:32.011Z,60.30
2019-02-17T17:23:02.623Z,61.10
2019-02-17T17:25:30.992Z,61.30
2019-02-17T17:27:59.653Z,61.80
2019-02-17T17:30:28.255Z,62.50
2019-02-17T17:32:56.883Z,62.80
2019-02-17T17:35:25.581Z,63.30
2019-02-17T17:37:54.346Z,63.80
2019-02-17T17:40:22.969Z,64.10
2019-02-17T17:42:51.580Z,64.50
2019-02-17T17:45:20.163Z,64.90
2019-02-17T17:47:48.864Z,65.30
2019-02-17T17:50:17.749Z,65.70
2019-02-17T17:52:46.452Z,66.10
2019-02-17T17:55:15.021Z,66.40
2019-02-17T17:57:43.629Z,66.30
2019-02-17T18:00:14.536Z,66.00
2019-02-17T18:02:43.172Z,66.10
2019-02-17T18:05:11.832Z,66.70
2019-02-17T18:07:40.422Z,66.90
2019-02-17T18:10:11.098Z,66.90
2019-02-17T18:12:40.033Z,67.40
2019-02-17T18:15:10.281Z,67.70
2019-02-17T18:17:39.145Z,68.10
2019-02-17T18:20:09.145Z,68.50
2019-02-17T18:22:57.037Z,68.70
2019-02-17T18:25:25.647Z,68.90
2019-02-17T18:27:54.592Z,68.80
2019-02-17T18:30:23.210Z,68.80
2019-02-17T18:32:51.803Z,69.10
2019-02-17T18:35:20.841Z,69.20
2019-02-17T18:37:49.663Z,69.10
2019-02-17T18:40:18.295Z,69.50
2019-02-17T18:42:46.995Z,69.80
2019-02-17T18:45:15.661Z,69.90
2019-02-17T18:47:44.561Z,70.10
2019-02-17T18:50:13.442Z,70.40
2019-02-17T18:52:42.100Z,70.50
2019-02-17T18:55:11.277Z,70.50
2019-02-17T18:57:48.992Z,70.60
2019-02-17T19:00:09.788Z,70.70
2019-02-17T19:02:38.400Z,70.70
2019-02-17T19:05:07.051Z,70.70
2019-02-17T19:07:35.659Z,70.80
2019-02-17T19:10:05.278Z,70.80
2019-02-17T19:12:34.031Z,70.70
2019-02-17T19:15:02.904Z,70.50
2019-02-17T19:17:30.687Z,70.30
2019-02-17T19:19:59.387Z,70.40
2019-02-17T19:22:28.077Z,70.90
2019-02-17T19:24:56.693Z,70.70
2019-02-17T19:27:25.272Z,70.70
2019-02-17T19:29:53.068Z,70.90
2019-02-17T19:32:20.873Z,71.30
2019-02-17T19:34:48.659Z,71.30
2019-02-17T19:37:16.837Z,71.50
2019-02-17T19:39:44.644Z,71.50
2019-02-17T19:42:12.690Z,71.50
2019-02-17T19:44:40.552Z,71.60
2019-02-17T19:47:08.375Z,71.60
2019-02-17T19:49:36.223Z,71.60
2019-02-17T19:52:04.027Z,71.60
2019-02-17T19:54:31.803Z,71.60
2019-02-17T19:56:59.579Z,71.90
2019-02-17T19:59:27.361Z,72.20
2019-02-17T20:01:55.180Z,72.10
2019-02-17T20:04:29.458Z,72.20
2019-02-17T20:06:57.230Z,72.40
2019-02-17T20:09:25.010Z,72.40
2019-02-17T20:11:52.801Z,72.30
2019-02-17T20:14:20.659Z,72.60
2019-02-17T20:16:48.431Z,72.60
2019-02-17T20:19:16.380Z,72.60
2019-02-17T20:21:44.147Z,72.90
2019-02-17T20:24:11.926Z,72.80
2019-02-17T20:26:39.729Z,72.90
2019-02-17T20:29:07.904Z,73.50
2019-02-17T20:31:35.708Z,73.90
2019-02-17T20:34:03.568Z,74.20
2019-02-17T20:36:31.332Z,74.20
2019-02-17T20:38:59.115Z,74.60
2019-02-17T20:41:26.899Z,74.70
2019-02-17T20:43:54.688Z,75.00
2019-02-17T20:46:22.827Z,75.00
2019-02-17T20:48:52.380Z,75.10
2019-02-17T20:51:20.156Z,75.50
2019-02-17T20:53:47.954Z,75.40
2019-02-17T20:56:15.813Z,75.80
2019-02-17T20:58:43.603Z,75.90
2019-02-17T21:01:11.406Z,75.90
2019-02-17T21:03:39.195Z,76.00
2019-02-17T21:06:12.786Z,76.00
2019-02-17T21:08:36.485Z,76.20
2019-02-17T21:11:04.369Z,75.40
2019-02-17T21:13:32.187Z,76.40
2019-02-17T21:16:00.251Z,76.60
2019-02-17T21:18:28.324Z,76.90
2019-02-17T21:20:56.183Z,77.00
2019-02-17T21:23:23.951Z,77.10
2019-02-17T21:25:51.761Z,77.30
2019-02-17T21:28:19.593Z,77.20
2019-02-17T21:30:47.365Z,77.20
2019-02-17T21:33:15.328Z,77.10
2019-02-17T21:35:43.096Z,77.30
2019-02-17T21:38:14.784Z,77.60
2019-02-17T21:40:42.569Z,77.60
2019-02-17T21:43:10.375Z,77.60
2019-02-17T21:45:38.204Z,77.90
2019-02-17T21:48:06.008Z,78.20
2019-02-17T21:50:33.789Z,78.30
2019-02-17T21:53:01.636Z,78.40
2019-02-17T21:55:29.408Z,78.50
2019-02-17T21:57:57.183Z,78.50
2019-02-17T22:00:24.944Z,78.60
2019-02-17T22:02:52.720Z,78.60
2019-02-17T22:05:20.524Z,78.70
2019-02-17T22:07:48.289Z,78.90
2019-02-17T22:10:16.180Z,79.30
2019-02-17T22:12:43.936Z,79.20
2019-02-17T22:15:12.451Z,79.50
2019-02-17T22:17:40.228Z,79.10
2019-02-17T22:20:08.431Z,79.20
2019-02-17T22:22:36.297Z,78.80
2019-02-17T22:25:04.287Z,78.80
2019-02-17T22:27:32.076Z,79.00
2019-02-17T22:30:53.627Z,78.50
2019-02-17T22:33:21.777Z,79.60
2019-02-17T22:35:50.376Z,79.30
2019-02-17T22:38:19.227Z,79.50
2019-02-17T22:40:47.800Z,79.40
2019-02-17T22:43:16.464Z,79.50
2019-02-17T22:45:45.033Z,79.10
2019-02-17T22:48:13.630Z,79.60
2019-02-17T22:50:42.487Z,79.70
2019-02-17T22:53:11.101Z,79.50
2019-02-17T22:55:39.691Z,80.00
2019-02-17T22:58:08.264Z,79.70
2019-02-17T23:00:58.373Z,79.70
2019-02-17T23:03:27.187Z,79.40
2019-02-17T23:05:55.765Z,79.50
2019-02-17T23:08:24.369Z,79.80
2019-02-17T23:11:12.269Z,80.10
2019-02-17T23:13:40.889Z,79.70
2019-02-17T23:16:09.488Z,80.00
2019-02-17T23:18:38.059Z,79.70
2019-02-17T23:21:06.647Z,79.50
2019-02-17T23:23:43.394Z,79.50
2019-02-17T23:26:31.337Z,79.40
2019-02-17T23:29:00.201Z,79.60
2019-02-17T23:31:28.767Z,79.60
2019-02-17T23:33:57.407Z,79.90
2019-02-17T23:36:25.996Z,80.00
2019-02-17T23:38:54.587Z,80.00
2019-02-17T23:41:23.163Z,80.00
2019-02-17T23:43:52.029Z,80.10
2019-02-17T23:46:20.628Z,80.30
2019-02-17T23:48:49.216Z,80.50
2019-02-17T23:51:17.815Z,80.30
2019-02-17T23:53:46.685Z,80.40
2019-02-17T23:58:57.889Z,81.00
